createdAt,value
2018-05-14T00:01:45.860Z,82.50
2018-05-14T00:04:12.123Z,82.40
2018-05-14T00:06:38.379Z,82.60
2018-05-14T00:09:04.641Z,82.80
2018-05-14T00:11:30.869Z,82.50
2018-05-14T00:13:57.835Z,82.60
2018-05-14T00:16:24.047Z,82.60
2018-05-14T00:18:50.289Z,82.70
2018-05-14T00:21:16.602Z,82.80
2018-05-14T00:23:43.547Z,82.70
2018-05-14T00:26:10.581Z,82.50
2018-05-14T00:28:37.584Z,82.60
2018-05-14T00:31:03.827Z,82.50
2018-05-14T00:33:30.060Z,82.60
2018-05-14T00:36:03.186Z,82.70
2018-05-14T00:38:30.138Z,83.10
2018-05-14T00:41:03.368Z,82.90
2018-05-14T00:43:29.563Z,83.20
2018-05-14T00:45:55.800Z,83.20
2018-05-14T00:48:22.132Z,82.90
2018-05-14T00:50:48.343Z,83.10
2018-05-14T00:53:14.659Z,83.00
2018-05-14T00:55:41.007Z,83.10
2018-05-14T00:58:07.264Z,83.70
2018-05-14T01:00:33.567Z,83.10
2018-05-14T01:02:59.833Z,82.90
2018-05-14T01:05:26.077Z,83.10
2018-05-14T01:07:52.367Z,82.90
2018-05-14T01:10:18.596Z,82.80
2018-05-14T01:12:44.800Z,82.90
2018-05-14T01:15:11.060Z,83.10
2018-05-14T01:17:37.268Z,83.00
2018-05-14T01:20:03.531Z,83.40
2018-05-14T01:22:29.814Z,83.50
2018-05-14T01:25:01.960Z,83.80
2018-05-14T01:27:28.979Z,83.70
2018-05-14T01:29:55.361Z,83.70
2018-05-14T01:32:21.682Z,83.60
2018-05-14T01:34:47.916Z,83.70
2018-05-14T01:37:14.913Z,83.80
2018-05-14T01:39:41.176Z,83.80
2018-05-14T01:42:08.175Z,84.10
2018-05-14T01:44:34.423Z,84.00
2018-05-14T01:47:00.619Z,84.00
2018-05-14T01:49:26.833Z,84.00
2018-05-14T01:51:53.746Z,84.10
2018-05-14T01:54:19.999Z,84.00
2018-05-14T01:56:46.966Z,84.10
2018-05-14T01:59:13.163Z,84.10
2018-05-14T02:01:40.121Z,84.30
2018-05-14T02:04:06.345Z,84.30
2018-05-14T02:06:33.269Z,84.30
2018-05-14T02:08:59.562Z,84.30
2018-05-14T02:11:25.870Z,84.10
2018-05-14T02:13:52.064Z,84.10
2018-05-14T02:16:19.028Z,84.30
2018-05-14T02:18:45.252Z,84.30
2018-05-14T02:21:12.211Z,84.40
2018-05-14T02:23:38.456Z,84.20
2018-05-14T02:26:04.666Z,84.00
2018-05-14T02:28:30.862Z,84.20
2018-05-14T02:30:57.807Z,84.50
2018-05-14T02:33:24.771Z,84.30
2018-05-14T02:35:51.006Z,84.20
2018-05-14T02:38:17.238Z,84.20
2018-05-14T02:40:43.451Z,84.30
2018-05-14T02:43:09.685Z,84.30
2018-05-14T02:45:35.896Z,84.40
2018-05-14T02:48:02.841Z,84.50
2018-05-14T02:50:29.791Z,84.60
2018-05-14T02:52:56.018Z,84.70
2018-05-14T02:55:23.044Z,84.80
2018-05-14T02:57:49.984Z,85.00
2018-05-14T03:00:16.212Z,85.00
2018-05-14T03:02:42.512Z,85.00
2018-05-14T03:05:08.721Z,85.20
2018-05-14T03:07:34.952Z,85.40
2018-05-14T03:10:01.176Z,85.20
2018-05-14T03:12:27.432Z,85.20
2018-05-14T03:14:53.722Z,85.30
2018-05-14T03:17:20.032Z,85.40
2018-05-14T03:19:46.199Z,85.50
2018-05-14T03:22:12.451Z,86.30
2018-05-14T03:24:38.763Z,85.60
2018-05-14T03:27:04.993Z,85.70
2018-05-14T03:29:31.296Z,85.80
2018-05-14T03:31:57.508Z,85.80
2018-05-14T03:34:24.506Z,85.90
2018-05-14T03:36:50.735Z,85.80
2018-05-14T03:39:17.019Z,85.80
2018-05-14T03:41:43.237Z,85.80
2018-05-14T03:44:10.183Z,85.70
2018-05-14T03:46:37.107Z,85.70
2018-05-14T03:49:03.319Z,85.60
2018-05-14T03:51:29.555Z,85.60
2018-05-14T03:53:56.527Z,85.70
2018-05-14T03:56:22.812Z,86.30
2018-05-14T03:59:01.316Z,85.70
2018-05-14T04:01:40.088Z,85.90
2018-05-14T04:04:18.782Z,85.80
2018-05-14T04:06:45.097Z,85.90
2018-05-14T04:09:11.415Z,86.00
2018-05-14T04:11:38.468Z,86.00
2018-05-14T04:14:04.687Z,86.00
2018-05-14T04:16:30.990Z,86.10
2018-05-14T04:18:57.954Z,85.80
2018-05-14T04:21:24.304Z,85.60
2018-05-14T04:23:50.835Z,85.90
2018-05-14T04:26:17.223Z,85.80
2018-05-14T04:28:44.194Z,85.80
2018-05-14T04:31:10.424Z,85.60
2018-05-14T04:33:36.652Z,85.50
2018-05-14T04:36:02.896Z,85.40
2018-05-14T04:38:29.239Z,85.50
2018-05-14T04:40:55.459Z,85.30
2018-05-14T04:43:21.728Z,85.30
2018-05-14T04:45:48.790Z,85.60
2018-05-14T04:48:15.792Z,85.80
2018-05-14T04:50:41.996Z,85.70
2018-05-14T04:53:08.187Z,85.90
2018-05-14T04:55:35.206Z,85.70
2018-05-14T04:58:01.480Z,85.70
2018-05-14T05:00:28.421Z,85.70
2018-05-14T05:02:54.639Z,85.60
2018-05-14T05:05:21.139Z,85.90
2018-05-14T05:07:47.339Z,86.20
2018-05-14T05:10:13.677Z,86.20
2018-05-14T05:12:39.883Z,86.30
2018-05-14T05:15:06.811Z,86.60
2018-05-14T05:17:33.757Z,86.60
2018-05-14T05:20:00.667Z,86.40
2018-05-14T05:22:26.869Z,86.30
2018-05-14T05:24:53.083Z,86.10
2018-05-14T05:27:19.272Z,86.40
2018-05-14T05:29:45.452Z,86.60
2018-05-14T05:32:11.664Z,86.40
2018-05-14T05:34:37.911Z,86.40
2018-05-14T05:37:04.136Z,86.70
2018-05-14T05:39:30.351Z,86.30
2018-05-14T05:41:56.533Z,86.10
2018-05-14T05:44:22.740Z,86.10
2018-05-14T05:46:50.451Z,86.00
2018-05-14T05:49:16.659Z,85.80
2018-05-14T05:51:42.815Z,86.00
2018-05-14T05:54:09.003Z,86.00
2018-05-14T05:56:36.673Z,85.90
2018-05-14T05:59:02.860Z,85.90
2018-05-14T06:01:29.058Z,86.50
2018-05-14T06:03:55.260Z,86.00
2018-05-14T06:06:21.431Z,85.80
2018-05-14T06:08:47.653Z,85.90
2018-05-14T06:11:20.923Z,85.90
2018-05-14T06:13:47.866Z,85.50
2018-05-14T06:16:14.790Z,84.60
2018-05-14T06:18:41.734Z,84.60
2018-05-14T06:21:07.962Z,84.50
2018-05-14T06:23:34.913Z,84.60
2018-05-14T06:26:01.824Z,84.90
2018-05-14T06:28:28.007Z,84.80
2018-05-14T06:30:54.187Z,84.90
2018-05-14T06:33:20.371Z,85.20
2018-05-14T06:35:46.797Z,85.40
2018-05-14T06:38:12.792Z,85.50
2018-05-14T06:40:39.741Z,85.80
2018-05-14T06:43:05.915Z,85.60
2018-05-14T06:45:32.101Z,85.10
2018-05-14T06:47:59.008Z,85.40
2018-05-14T06:50:25.200Z,85.20
2018-05-14T06:52:51.385Z,85.60
2018-05-14T06:55:24.512Z,85.50
2018-05-14T06:57:50.689Z,85.70
2018-05-14T07:00:16.872Z,85.90
2018-05-14T07:02:43.071Z,85.20
2018-05-14T07:05:09.247Z,83.90
2018-05-14T07:07:35.431Z,83.50
2018-05-14T07:10:01.675Z,83.70
2018-05-14T07:12:27.883Z,82.60
2018-05-14T07:14:55.030Z,84.00
2018-05-14T07:17:21.995Z,84.40
2018-05-14T07:19:48.179Z,84.30
2018-05-14T07:22:14.349Z,83.90
2018-05-14T07:24:40.563Z,83.70
2018-05-14T07:27:06.817Z,82.70
2018-05-14T07:29:33.127Z,82.90
2018-05-14T07:31:59.355Z,83.00
2018-05-14T07:34:25.593Z,82.60
2018-05-14T07:36:51.787Z,81.90
2018-05-14T07:39:17.983Z,81.90
2018-05-14T07:41:44.157Z,82.60
2018-05-14T07:44:11.083Z,81.90
2018-05-14T07:46:37.282Z,81.70
2018-05-14T07:49:03.511Z,82.10
2018-05-14T07:51:29.713Z,81.30
2018-05-14T07:53:55.925Z,81.00
2018-05-14T07:56:22.128Z,80.70
2018-05-14T07:58:48.340Z,81.20
2018-05-14T08:01:14.532Z,82.50
2018-05-14T08:03:40.732Z,81.60
2018-05-14T08:06:06.909Z,81.40
2018-05-14T08:08:33.112Z,81.20
2018-05-14T08:10:59.296Z,81.80
2018-05-14T08:13:26.218Z,83.20
2018-05-14T08:15:52.411Z,83.10
2018-05-14T08:18:18.609Z,82.70
2018-05-14T08:20:44.786Z,82.80
2018-05-14T08:23:11.110Z,83.30
2018-05-14T08:25:37.255Z,83.10
2018-05-14T08:28:03.433Z,82.20
2018-05-14T08:30:29.616Z,82.10
2018-05-14T08:32:55.790Z,80.40
2018-05-14T08:35:22.022Z,78.60
2018-05-14T08:37:48.255Z,80.60
2018-05-14T08:40:14.423Z,80.30
2018-05-14T08:42:40.592Z,79.50
2018-05-14T08:45:06.789Z,81.00
2018-05-14T08:47:33.716Z,81.80
2018-05-14T08:50:00.279Z,81.70
2018-05-14T08:52:27.248Z,80.70
2018-05-14T08:54:53.426Z,80.70
2018-05-14T08:57:19.607Z,80.70
2018-05-14T08:59:45.801Z,77.50
2018-05-14T09:02:12.727Z,78.50
2018-05-14T09:04:39.655Z,76.60
2018-05-14T09:07:05.847Z,76.40
2018-05-14T09:09:32.013Z,73.60
2018-05-14T09:11:58.199Z,72.10
2018-05-14T09:14:24.385Z,73.80
2018-05-14T09:16:50.559Z,75.80
2018-05-14T09:19:16.754Z,76.60
2018-05-14T09:21:42.949Z,74.10
2018-05-14T09:24:09.116Z,75.20
2018-05-14T09:26:35.303Z,74.00
2018-05-14T09:29:01.484Z,76.50
2018-05-14T09:31:27.697Z,75.90
2018-05-14T09:33:53.924Z,73.70
2018-05-14T09:36:20.865Z,75.30
2018-05-14T09:38:47.808Z,74.10
2018-05-14T09:41:14.820Z,73.50
2018-05-14T09:43:41.091Z,73.50
2018-05-14T09:46:07.279Z,72.80
2018-05-14T09:48:33.492Z,74.30
2018-05-14T09:50:59.706Z,73.80
2018-05-14T09:53:26.020Z,73.30
2018-05-14T09:55:52.193Z,73.20
2018-05-14T09:58:18.490Z,70.90
2018-05-14T10:00:44.711Z,73.00
2018-05-14T10:03:11.124Z,74.20
2018-05-14T10:05:37.335Z,74.90
2018-05-14T10:08:03.561Z,76.00
2018-05-14T10:10:30.487Z,70.60
2018-05-14T10:12:56.708Z,70.50
2018-05-14T10:15:22.889Z,70.60
2018-05-14T10:17:49.169Z,69.30
2018-05-14T10:20:15.432Z,71.50
2018-05-14T10:22:42.352Z,71.80
2018-05-14T10:25:08.539Z,71.70
2018-05-14T10:27:34.726Z,71.70
2018-05-14T10:30:01.635Z,66.00
2018-05-14T10:32:27.888Z,65.80
2018-05-14T10:34:54.063Z,66.60
2018-05-14T10:37:20.232Z,68.40
2018-05-14T10:39:46.419Z,69.80
2018-05-14T10:42:12.607Z,67.30
2018-05-14T10:44:39.545Z,66.70
2018-05-14T10:47:06.470Z,66.80
2018-05-14T10:49:32.719Z,66.00
2018-05-14T10:51:58.913Z,66.30
2018-05-14T10:54:25.103Z,66.40
2018-05-14T10:56:51.311Z,66.80
2018-05-14T10:59:18.236Z,67.00
2018-05-14T11:01:44.434Z,66.80
2018-05-14T11:04:10.627Z,66.40
2018-05-14T11:06:36.820Z,65.30
2018-05-14T11:09:03.796Z,67.90
2018-05-14T11:11:30.019Z,67.70
2018-05-14T11:13:56.939Z,68.60
2018-05-14T11:16:23.115Z,68.50
2018-05-14T11:18:49.371Z,64.80
2018-05-14T11:21:15.533Z,65.00
2018-05-14T11:23:42.469Z,63.60
2018-05-14T11:26:08.656Z,63.40
2018-05-14T11:28:34.868Z,59.90
2018-05-14T11:31:01.065Z,62.20
2018-05-14T11:33:28.010Z,65.60
2018-05-14T11:35:54.945Z,63.80
2018-05-14T11:38:21.895Z,64.00
2018-05-14T11:40:48.927Z,66.60
2018-05-14T11:43:15.155Z,66.50
2018-05-14T11:45:41.364Z,62.40
2018-05-14T11:48:09.056Z,65.30
2018-05-14T11:50:35.999Z,63.30
2018-05-14T11:53:02.320Z,63.20
2018-05-14T11:55:29.280Z,62.10
2018-05-14T11:57:56.245Z,61.90
2018-05-14T12:00:22.481Z,61.70
2018-05-14T12:02:48.745Z,63.00
2018-05-14T12:05:14.877Z,64.90
2018-05-14T12:07:41.061Z,61.00
2018-05-14T12:10:07.292Z,60.30
2018-05-14T12:12:34.191Z,62.10
2018-05-14T12:15:00.425Z,61.90
2018-05-14T12:17:27.410Z,61.30
2018-05-14T12:19:53.623Z,61.20
2018-05-14T12:22:19.863Z,59.80
2018-05-14T12:24:46.061Z,61.00
2018-05-14T12:27:12.981Z,62.90
2018-05-14T12:29:39.173Z,62.70
2018-05-14T12:32:05.471Z,63.50
2018-05-14T12:34:31.583Z,62.40
2018-05-14T12:36:57.771Z,62.30
2018-05-14T12:39:23.985Z,61.70
2018-05-14T12:41:50.193Z,63.90
2018-05-14T12:44:16.411Z,58.40
2018-05-14T12:46:43.331Z,57.20
2018-05-14T12:49:09.525Z,57.10
2018-05-14T12:51:35.735Z,58.30
2018-05-14T12:54:01.946Z,59.30
2018-05-14T12:56:28.152Z,57.70
2018-05-14T12:58:54.405Z,57.00
2018-05-14T13:01:20.614Z,56.50
2018-05-14T13:03:47.567Z,54.10
2018-05-14T13:06:14.553Z,55.30
2018-05-14T13:08:40.784Z,55.20
2018-05-14T13:11:07.013Z,54.60
2018-05-14T13:13:33.253Z,54.70
2018-05-14T13:15:59.469Z,55.80
2018-05-14T13:18:25.685Z,54.90
2018-05-14T13:20:51.918Z,52.10
2018-05-14T13:23:18.112Z,52.40
2018-05-14T13:25:45.064Z,53.30
2018-05-14T13:28:12.031Z,52.90
2018-05-14T13:30:38.249Z,52.70
2018-05-14T13:33:04.529Z,53.80
2018-05-14T13:35:30.656Z,52.30
2018-05-14T13:37:56.966Z,53.00
2018-05-14T13:40:23.107Z,52.90
2018-05-14T13:42:49.336Z,53.00
2018-05-14T13:45:15.541Z,52.70
2018-05-14T13:47:41.789Z,51.80
2018-05-14T13:50:09.486Z,51.00
2018-05-14T13:52:36.416Z,50.60
2018-05-14T13:55:10.376Z,51.30
2018-05-14T13:57:36.591Z,51.20
2018-05-14T14:00:02.824Z,49.90
2018-05-14T14:02:29.148Z,50.70
2018-05-14T14:04:55.378Z,49.40
2018-05-14T14:07:21.580Z,49.40
2018-05-14T14:09:48.551Z,49.10
2018-05-14T14:12:14.781Z,49.00
2018-05-14T14:14:40.995Z,49.50
2018-05-14T14:17:07.237Z,47.60
2018-05-14T14:19:33.448Z,47.80
2018-05-14T14:22:00.393Z,48.10
2018-05-14T14:24:26.670Z,47.90
2018-05-14T14:26:53.539Z,48.50
2018-05-14T14:29:20.487Z,49.10
2018-05-14T14:31:46.695Z,48.30
2018-05-14T14:34:13.627Z,46.70
2018-05-14T14:36:39.835Z,46.60
2018-05-14T14:39:06.060Z,45.80
2018-05-14T14:41:32.275Z,46.50
2018-05-14T14:43:58.520Z,46.30
2018-05-14T14:46:24.702Z,46.00
2018-05-14T14:48:50.965Z,45.60
2018-05-14T14:51:17.167Z,46.50
2018-05-14T14:53:44.137Z,46.70
2018-05-14T14:56:10.323Z,45.90
2018-05-14T14:58:37.295Z,46.10
2018-05-14T15:01:03.525Z,46.00
2018-05-14T15:03:30.459Z,46.80
2018-05-14T15:05:57.439Z,46.30
2018-05-14T15:08:23.647Z,46.10
2018-05-14T15:10:49.852Z,46.30
2018-05-14T15:13:16.807Z,44.30
2018-05-14T15:15:43.756Z,44.40
2018-05-14T15:18:10.687Z,44.70
2018-05-14T15:20:37.673Z,44.10
2018-05-14T15:23:03.884Z,44.00
2018-05-14T15:25:30.094Z,43.90
2018-05-14T15:27:57.035Z,43.20
2018-05-14T15:30:23.971Z,42.40
2018-05-14T15:32:50.200Z,42.30
2018-05-14T15:35:16.381Z,43.30
2018-05-14T15:37:42.617Z,42.60
2018-05-14T15:40:08.878Z,40.10
2018-05-14T15:42:35.867Z,41.80
2018-05-14T15:45:02.093Z,41.70
2018-05-14T15:47:28.303Z,42.20
2018-05-14T15:49:55.275Z,41.30
2018-05-14T15:52:21.540Z,41.20
2018-05-14T15:54:54.640Z,40.30
2018-05-14T15:57:20.837Z,40.70
2018-05-14T15:59:47.116Z,40.50
2018-05-14T16:02:14.100Z,41.30
2018-05-14T16:04:40.329Z,41.20
2018-05-14T16:07:06.528Z,41.20
2018-05-14T16:09:32.731Z,40.50
2018-05-14T16:11:58.920Z,40.30
2018-05-14T16:14:25.137Z,39.50
2018-05-14T16:16:51.339Z,39.20
2018-05-14T16:19:18.262Z,40.00
2018-05-14T16:21:44.452Z,39.80
2018-05-14T16:24:10.761Z,39.60
2018-05-14T16:26:37.026Z,39.30
2018-05-14T16:29:03.217Z,38.80
2018-05-14T16:31:29.423Z,39.40
2018-05-14T16:33:55.620Z,39.50
2018-05-14T16:36:23.865Z,39.20
2018-05-14T16:38:50.090Z,38.60
2018-05-14T16:41:16.324Z,39.00
2018-05-14T16:43:42.599Z,40.00
2018-05-14T16:46:09.572Z,39.60
2018-05-14T16:48:35.759Z,39.40
2018-05-14T16:51:01.995Z,40.30
2018-05-14T16:53:28.197Z,39.80
2018-05-14T16:55:54.409Z,38.70
2018-05-14T16:58:20.636Z,39.50
2018-05-14T17:00:46.963Z,38.70
2018-05-14T17:03:13.185Z,38.50
2018-05-14T17:05:39.386Z,38.10
2018-05-14T17:08:06.424Z,37.30
2018-05-14T17:10:32.643Z,37.60
2018-05-14T17:12:59.661Z,38.30
2018-05-14T17:15:26.668Z,38.30
2018-05-14T17:17:52.876Z,38.10
2018-05-14T17:20:19.188Z,38.20
2018-05-14T17:22:45.444Z,37.30
2018-05-14T17:25:11.695Z,38.00
2018-05-14T17:27:37.915Z,37.50
2018-05-14T17:30:04.195Z,37.60
2018-05-14T17:32:30.407Z,37.40
2018-05-14T17:34:56.624Z,37.80
2018-05-14T17:37:22.950Z,37.50
2018-05-14T17:39:49.190Z,37.50
2018-05-14T17:42:15.383Z,38.40
2018-05-14T17:44:41.569Z,38.60
2018-05-14T17:47:07.767Z,38.10
2018-05-14T17:49:33.957Z,38.80
2018-05-14T17:52:00.216Z,37.60
2018-05-14T17:54:26.474Z,35.60
2018-05-14T17:56:53.442Z,36.50
2018-05-14T17:59:19.667Z,36.50
2018-05-14T18:01:46.626Z,37.20
2018-05-14T18:04:12.883Z,37.10
2018-05-14T18:06:39.304Z,36.90
2018-05-14T18:09:05.527Z,36.70
2018-05-14T18:11:31.732Z,38.00
2018-05-14T18:13:58.080Z,37.80
2018-05-14T18:16:24.332Z,37.80
2018-05-14T18:18:50.543Z,38.00
2018-05-14T18:23:49.111Z,38.10
2018-05-14T18:26:16.110Z,38.60
2018-05-14T18:28:42.391Z,38.50
2018-05-14T18:31:15.577Z,38.70
2018-05-14T18:33:41.736Z,38.60
2018-05-14T18:36:07.960Z,39.30
2018-05-14T18:38:34.172Z,39.10
2018-05-14T18:41:00.384Z,38.30
2018-05-14T18:43:27.360Z,38.60
2018-05-14T18:45:53.585Z,38.40
2018-05-14T18:48:19.812Z,38.80
2018-05-14T18:50:46.199Z,39.30
2018-05-14T18:53:13.173Z,39.60
2018-05-14T18:55:40.126Z,39.80
2018-05-14T18:58:06.359Z,39.70
2018-05-14T19:00:33.311Z,40.30
2018-05-14T19:03:00.245Z,40.20
2018-05-14T19:05:26.501Z,40.10
2018-05-14T19:07:52.746Z,40.50
2018-05-14T19:10:25.119Z,40.90
2018-05-14T19:12:51.331Z,41.20
2018-05-14T19:15:23.486Z,42.00
2018-05-14T19:17:55.879Z,42.60
2018-05-14T19:20:22.099Z,42.80
2018-05-14T19:22:54.434Z,43.60
2018-05-14T19:25:21.400Z,44.20
2018-05-14T19:27:53.917Z,44.00
2018-05-14T19:30:20.124Z,44.50
2018-05-14T19:32:46.333Z,45.10
2018-05-14T19:35:18.732Z,45.20
2018-05-14T19:37:44.928Z,45.80
2018-05-14T19:40:17.459Z,45.80
2018-05-14T19:42:43.687Z,46.20
2018-05-14T19:45:09.895Z,47.00
2018-05-14T19:47:36.134Z,46.90
2018-05-14T19:50:02.351Z,46.80
2018-05-14T19:52:28.571Z,47.30
2018-05-14T19:54:54.819Z,47.70
2018-05-14T19:57:21.039Z,48.10
2018-05-14T19:59:47.272Z,48.10
2018-05-14T20:02:13.492Z,48.50
2018-05-14T20:04:39.706Z,48.40
2018-05-14T20:07:05.933Z,48.60
2018-05-14T20:09:32.151Z,48.80
2018-05-14T20:11:58.408Z,49.00
2018-05-14T20:14:24.615Z,49.30
2018-05-14T20:16:50.799Z,49.40
2018-05-14T20:19:17.776Z,50.10
2018-05-14T20:21:43.976Z,50.00
2018-05-14T20:24:10.894Z,50.30
2018-05-14T20:26:37.165Z,50.20
2018-05-14T20:29:03.482Z,50.60
2018-05-14T20:31:29.753Z,50.70
2018-05-14T20:33:56.664Z,50.50
2018-05-14T20:36:22.827Z,50.90
2018-05-14T20:38:49.026Z,51.40
2018-05-14T20:41:15.981Z,51.50
2018-05-14T20:43:42.162Z,51.50
2018-05-14T20:46:08.362Z,51.80
2018-05-14T20:48:34.596Z,52.60
2018-05-14T20:51:00.779Z,51.90
2018-05-14T20:53:26.959Z,52.10
2018-05-14T20:55:53.155Z,52.20
2018-05-14T20:58:19.372Z,52.40
2018-05-14T21:00:45.577Z,52.50
2018-05-14T21:03:11.814Z,52.70
2018-05-14T21:05:38.008Z,52.80
2018-05-14T21:08:05.680Z,53.10
2018-05-14T21:10:32.639Z,53.20
2018-05-14T21:12:59.578Z,53.40
2018-05-14T21:15:26.496Z,53.60
2018-05-14T21:17:52.693Z,53.60
2018-05-14T21:20:18.873Z,53.80
2018-05-14T21:22:45.807Z,54.30
2018-05-14T21:25:12.059Z,54.20
2018-05-14T21:27:38.242Z,54.30
2018-05-14T21:30:04.432Z,54.40
2018-05-14T21:32:30.615Z,54.60
2018-05-14T21:34:56.793Z,54.60
2018-05-14T21:37:22.996Z,54.80
2018-05-14T21:39:49.915Z,55.10
2018-05-14T21:42:16.839Z,55.20
2018-05-14T21:44:43.027Z,55.10
2018-05-14T21:47:09.215Z,55.10
2018-05-14T21:49:35.411Z,55.20
2018-05-14T21:52:01.611Z,55.30
2018-05-14T21:54:27.844Z,55.50
2018-05-14T21:56:54.031Z,55.50
2018-05-14T21:59:20.231Z,55.50
2018-05-14T22:01:46.407Z,56.10
2018-05-14T22:04:12.599Z,55.60
2018-05-14T22:06:38.800Z,55.60
2018-05-14T22:09:04.955Z,55.70
2018-05-14T22:11:31.881Z,55.70
2018-05-14T22:13:58.067Z,55.60
2018-05-14T22:16:24.274Z,55.70
2018-05-14T22:18:50.438Z,55.80
2018-05-14T22:21:16.649Z,55.80
2018-05-14T22:23:42.893Z,55.80
2018-05-14T22:26:09.228Z,55.70
2018-05-14T22:28:35.427Z,55.70
2018-05-14T22:31:01.616Z,56.10
2018-05-14T22:33:34.937Z,56.00
2018-05-14T22:36:01.121Z,56.00
2018-05-14T22:38:27.297Z,56.00
2018-05-14T22:40:53.495Z,56.10
2018-05-14T22:43:19.684Z,56.10
2018-05-14T22:45:45.891Z,56.30
2018-05-14T22:48:12.078Z,56.40
2018-05-14T22:50:39.000Z,56.50
2018-05-14T22:53:05.197Z,56.40
2018-05-14T22:55:32.101Z,56.70
2018-05-14T22:57:59.088Z,56.90
2018-05-14T23:00:26.268Z,56.80
2018-05-14T23:02:53.181Z,57.10
2018-05-14T23:05:19.376Z,57.10
2018-05-14T23:07:46.305Z,57.30
2018-05-14T23:10:12.501Z,57.20
2018-05-14T23:12:38.687Z,57.30
2018-05-14T23:15:05.622Z,57.40
2018-05-14T23:17:31.844Z,58.00
2018-05-14T23:19:58.788Z,57.60
2018-05-14T23:22:38.063Z,57.60
2018-05-14T23:25:04.968Z,57.70
2018-05-14T23:27:31.889Z,57.90
2018-05-14T23:29:58.101Z,57.90
2018-05-14T23:32:24.287Z,58.00
2018-05-14T23:34:51.206Z,58.20
2018-05-14T23:37:17.403Z,58.20
2018-05-14T23:39:43.583Z,58.20
2018-05-14T23:42:10.507Z,58.40
2018-05-14T23:44:36.711Z,58.40
2018-05-14T23:47:02.905Z,58.50
2018-05-14T23:49:29.088Z,58.60
2018-05-14T23:51:56.041Z,58.90
2018-05-14T23:54:22.963Z,59.10
2018-05-14T23:56:49.145Z,58.90
2018-05-14T23:59:15.345Z,58.90
